createdAt,value
2019-05-13T00:02:08.956Z,8.00
2019-05-13T00:07:13.564Z,8.00
2019-05-13T00:12:18.448Z,8.00
2019-05-13T00:17:23.717Z,8.00
2019-05-13T00:22:28.597Z,8.10
2019-05-13T00:27:33.934Z,8.00
2019-05-13T00:32:38.484Z,8.00
2019-05-13T00:37:44.306Z,8.10
2019-05-13T00:42:49.180Z,8.00
2019-05-13T00:47:53.816Z,7.90
2019-05-13T00:52:58.358Z,7.70
2019-05-13T00:58:04.223Z,7.60
2019-05-13T01:03:09.150Z,7.60
2019-05-13T01:08:14.556Z,7.50
2019-05-13T01:13:19.626Z,7.50
2019-05-13T01:18:24.176Z,7.40
2019-05-13T01:23:28.716Z,7.40
2019-05-13T01:28:34.405Z,7.40
2019-05-13T01:33:39.295Z,7.30
2019-05-13T01:38:44.179Z,7.40
2019-05-13T01:43:48.720Z,7.30
2019-05-13T01:48:54.423Z,7.30
2019-05-13T01:53:59.178Z,7.30
2019-05-13T01:59:03.901Z,7.30
2019-05-13T02:04:08.593Z,7.20
2019-05-13T02:09:14.228Z,7.20
2019-05-13T02:14:18.949Z,7.20
2019-05-13T02:19:24.547Z,7.10
2019-05-13T02:24:29.644Z,7.10
2019-05-13T02:29:34.516Z,7.20
2019-05-13T02:34:43.322Z,7.20
2019-05-13T02:39:46.619Z,7.30
2019-05-13T02:44:52.943Z,7.30
2019-05-13T02:50:00.720Z,7.30
2019-05-13T02:55:04.337Z,7.30
2019-05-13T03:00:12.921Z,7.20
2019-05-13T03:05:16.238Z,7.20
2019-05-13T03:10:22.390Z,7.20
2019-05-13T03:15:32.445Z,7.20
2019-05-13T03:20:36.075Z,7.20
2019-05-13T03:25:42.909Z,7.20
2019-05-13T03:30:46.866Z,7.30
2019-05-13T03:35:55.785Z,7.30
2019-05-13T03:40:58.053Z,7.30
2019-05-13T03:46:04.364Z,7.30
2019-05-13T03:51:09.066Z,7.40
2019-05-13T03:56:13.633Z,7.40
2019-05-13T04:01:18.299Z,7.40
2019-05-13T04:06:23.720Z,7.50
2019-05-13T04:11:28.518Z,7.50
2019-05-13T04:16:33.141Z,7.50
2019-05-13T04:21:37.847Z,7.50
2019-05-13T04:26:43.381Z,7.50
2019-05-13T04:31:48.170Z,7.50
2019-05-13T04:36:53.693Z,7.60
2019-05-13T04:41:58.251Z,7.70
2019-05-13T04:47:03.900Z,7.70
2019-05-13T04:52:08.873Z,7.80
2019-05-13T04:57:13.526Z,7.90
2019-05-13T05:02:49.739Z,8.00
2019-05-13T05:08:14.897Z,8.00
2019-05-13T05:13:42.815Z,8.00
2019-05-13T05:19:24.624Z,8.00
2019-05-13T05:24:52.024Z,8.10
2019-05-13T05:30:32.074Z,8.10
2019-05-13T05:36:06.858Z,8.30
2019-05-13T05:41:15.222Z,8.30
2019-05-13T05:46:22.148Z,8.70
2019-05-13T05:51:31.471Z,9.00
2019-05-13T05:56:38.625Z,9.30
2019-05-13T06:01:46.693Z,9.60
2019-05-13T06:06:52.185Z,9.80
2019-05-13T06:11:57.123Z,9.90
2019-05-13T06:17:02.740Z,10.10
2019-05-13T06:22:07.725Z,10.10
2019-05-13T06:27:12.685Z,10.20
2019-05-13T06:32:22.348Z,10.30
2019-05-13T06:37:23.726Z,10.30
2019-05-13T06:42:28.289Z,10.50
2019-05-13T06:47:36.064Z,10.60
2019-05-13T06:52:39.212Z,10.60
2019-05-13T06:57:43.877Z,10.60
2019-05-13T07:02:48.706Z,10.70
2019-05-13T07:07:53.448Z,10.80
2019-05-13T07:12:58.136Z,10.90
2019-05-13T07:18:02.794Z,11.00
2019-05-13T07:23:07.636Z,11.00
2019-05-13T07:28:12.853Z,11.00
2019-05-13T07:33:17.834Z,11.20
2019-05-13T07:38:22.981Z,11.20
2019-05-13T07:43:27.850Z,11.30
2019-05-13T07:48:32.500Z,11.30
2019-05-13T07:53:37.450Z,11.40
2019-05-13T07:58:42.047Z,11.50
2019-05-13T08:03:46.660Z,11.60
2019-05-13T08:08:52.276Z,11.60
2019-05-13T08:13:57.408Z,11.70
2019-05-13T08:19:02.945Z,11.70
2019-05-13T08:24:07.541Z,11.80
2019-05-13T08:29:12.142Z,11.80
2019-05-13T08:34:16.709Z,12.00
2019-05-13T08:39:21.745Z,12.10
2019-05-13T08:44:26.512Z,12.00
2019-05-13T08:49:33.888Z,12.10
2019-05-13T08:54:41.777Z,11.90
2019-05-13T08:59:46.308Z,11.90
2019-05-13T09:04:51.391Z,12.10
2019-05-13T09:09:56.292Z,12.20
2019-05-13T09:15:03.232Z,12.30
2019-05-13T09:20:08.003Z,12.40
2019-05-13T09:25:12.694Z,12.70
2019-05-13T09:30:18.360Z,12.70
2019-05-13T09:35:23.227Z,12.90
2019-05-13T09:40:27.952Z,13.00
2019-05-13T09:45:32.747Z,13.00
2019-05-13T09:50:37.361Z,12.90
2019-05-13T09:55:42.004Z,12.90
2019-05-13T10:00:47.512Z,13.00
2019-05-13T10:05:52.185Z,13.00
2019-05-13T10:10:57.124Z,12.90
2019-05-13T10:16:28.475Z,13.00
2019-05-13T10:21:35.571Z,13.00
2019-05-13T10:31:48.053Z,13.00
2019-05-13T10:36:52.861Z,13.30
2019-05-13T10:41:57.552Z,13.30
2019-05-13T10:47:02.627Z,13.40
2019-05-13T10:52:07.794Z,13.50
2019-05-13T10:57:13.680Z,13.70
2019-05-13T11:02:22.133Z,13.80
2019-05-13T11:07:26.091Z,13.70
2019-05-13T11:12:33.310Z,13.60
2019-05-13T11:17:37.531Z,13.70
2019-05-13T11:22:42.409Z,13.70
2019-05-13T11:27:47.435Z,13.70
2019-05-13T11:32:51.997Z,13.60
2019-05-13T11:38:02.802Z,13.70
2019-05-13T11:43:07.758Z,13.80
2019-05-13T11:48:13.183Z,13.80
2019-05-13T11:53:36.389Z,13.70
2019-05-13T11:58:24.286Z,13.70
2019-05-13T12:03:32.148Z,13.90
2019-05-13T12:08:35.109Z,14.00
2019-05-13T12:13:42.661Z,14.00
2019-05-13T12:18:47.685Z,14.10
2019-05-13T12:23:53.002Z,14.00
2019-05-13T12:29:15.857Z,14.00
2019-05-13T12:34:15.400Z,14.00
2019-05-13T12:39:23.557Z,13.90
2019-05-13T12:44:27.165Z,13.80
2019-05-13T12:49:35.642Z,13.90
2019-05-13T12:54:38.189Z,14.10
2019-05-13T12:59:43.680Z,14.20
2019-05-13T13:05:13.024Z,14.30
2019-05-13T13:09:55.316Z,14.20
2019-05-13T13:15:20.346Z,14.20
2019-05-13T13:20:09.702Z,14.20
2019-05-13T13:25:14.054Z,14.00
2019-05-13T13:30:18.819Z,13.60
2019-05-13T13:35:24.074Z,13.40
2019-05-13T13:40:30.602Z,13.30
2019-05-13T13:46:06.127Z,13.20
2019-05-13T13:50:44.174Z,13.30
2019-05-13T13:55:47.642Z,13.30
2019-05-13T14:01:05.960Z,13.40
2019-05-13T14:05:58.536Z,13.60
2019-05-13T14:06:25.608Z,13.00
2019-05-13T14:11:03.098Z,13.60
2019-05-13T14:16:23.406Z,13.60
2019-05-13T14:21:13.967Z,13.50
2019-05-13T14:26:18.781Z,13.50
2019-05-13T14:31:23.860Z,13.60
2019-05-13T14:36:29.128Z,13.60
2019-05-13T14:41:33.764Z,13.80
2019-05-13T14:46:47.230Z,14.10
2019-05-13T14:51:44.850Z,14.30
2019-05-13T14:56:51.943Z,14.00
2019-05-13T15:01:55.796Z,13.90
2019-05-13T15:07:00.402Z,13.90
2019-05-13T15:12:05.188Z,14.10
2019-05-13T15:17:09.742Z,14.30
2019-05-13T15:22:16.131Z,14.30
2019-05-13T15:27:22.302Z,14.10
2019-05-13T15:32:27.069Z,13.90
2019-05-13T15:37:32.276Z,13.70
2019-05-13T15:42:36.977Z,13.50
2019-05-13T15:47:42.173Z,13.30
2019-05-13T15:52:46.742Z,13.20
2019-05-13T15:57:51.914Z,13.20
2019-05-13T16:02:56.726Z,13.10
2019-05-13T16:08:01.495Z,13.10
2019-05-13T16:13:11.758Z,13.10
2019-05-13T16:18:22.224Z,13.10
2019-05-13T16:23:26.944Z,13.10
2019-05-13T16:28:32.662Z,13.20
2019-05-13T16:33:37.567Z,13.20
2019-05-13T16:38:42.293Z,13.20
2019-05-13T16:43:46.895Z,13.10
2019-05-13T16:48:51.846Z,13.20
2019-05-13T16:53:57.203Z,13.30
2019-05-13T16:59:01.938Z,13.30
2019-05-13T17:04:06.656Z,13.30
2019-05-13T17:09:11.648Z,13.30
2019-05-13T17:14:18.420Z,13.20
2019-05-13T17:19:22.975Z,13.10
2019-05-13T17:24:27.789Z,13.10
2019-05-13T17:29:32.441Z,12.90
2019-05-13T17:34:37.021Z,12.70
2019-05-13T17:39:41.707Z,12.70
2019-05-13T17:44:47.730Z,12.60
2019-05-13T17:49:52.427Z,12.50
2019-05-13T17:54:57.953Z,12.40
2019-05-13T18:00:03.804Z,12.40
2019-05-13T18:05:08.811Z,12.30
2019-05-13T18:10:14.456Z,12.30
2019-05-13T18:15:19.417Z,12.20
2019-05-13T18:20:23.970Z,12.10
2019-05-13T18:25:28.611Z,12.00
2019-05-13T18:30:33.485Z,11.80
2019-05-13T18:35:38.099Z,11.70
2019-05-13T18:40:42.669Z,11.60
2019-05-13T18:45:47.356Z,11.40
2019-05-13T18:50:52.415Z,11.30
2019-05-13T18:55:57.304Z,11.10
2019-05-13T19:01:02.006Z,10.80
2019-05-13T19:06:06.661Z,10.60
2019-05-13T19:11:11.765Z,10.40
2019-05-13T19:16:17.344Z,10.20
2019-05-13T19:21:22.018Z,10.10
2019-05-13T19:26:26.725Z,9.90
2019-05-13T19:31:32.591Z,9.80
2019-05-13T19:36:37.325Z,9.70
2019-05-13T19:41:42.559Z,9.60
2019-05-13T19:46:47.222Z,9.50
2019-05-13T19:51:52.462Z,9.40
2019-05-13T19:56:57.096Z,9.40
2019-05-13T20:02:01.900Z,9.40
2019-05-13T20:07:06.979Z,9.30
2019-05-13T20:12:11.826Z,9.30
2019-05-13T20:17:16.499Z,9.30
2019-05-13T20:22:21.499Z,9.30
2019-05-13T20:27:26.201Z,9.10
2019-05-13T20:32:31.175Z,9.00
2019-05-13T20:37:36.024Z,8.90
2019-05-13T20:42:41.387Z,9.00
2019-05-13T20:47:47.383Z,9.00
2019-05-13T20:52:51.945Z,9.10
2019-05-13T20:57:56.541Z,9.10
2019-05-13T21:03:02.783Z,9.10
2019-05-13T21:08:07.620Z,9.10
2019-05-13T21:13:13.250Z,9.10
2019-05-13T21:18:17.798Z,9.00
2019-05-13T21:23:22.349Z,8.90
2019-05-13T21:28:27.143Z,9.00
2019-05-13T21:33:31.697Z,9.00
2019-05-13T21:38:37.636Z,9.00
2019-05-13T21:43:42.191Z,9.00
2019-05-13T21:48:46.735Z,9.00
2019-05-13T21:53:51.903Z,9.00
2019-05-13T21:58:56.620Z,9.10
2019-05-13T22:04:01.800Z,9.00
2019-05-13T22:09:08.987Z,9.00
2019-05-13T22:14:13.536Z,9.00
2019-05-13T22:19:18.344Z,8.90
2019-05-13T22:24:23.041Z,8.90
2019-05-13T22:29:27.596Z,8.80
2019-05-13T22:34:32.205Z,8.70
2019-05-13T22:39:36.775Z,8.70
2019-05-13T22:44:41.843Z,8.60
2019-05-13T22:49:46.665Z,8.50
2019-05-13T22:54:51.871Z,8.40
2019-05-13T22:59:57.629Z,8.40
2019-05-13T23:05:02.185Z,8.30
2019-05-13T23:10:07.898Z,8.10
2019-05-13T23:15:14.065Z,8.10
2019-05-13T23:20:21.069Z,8.00
2019-05-13T23:25:24.932Z,7.90
2019-05-13T23:30:31.212Z,7.90
2019-05-13T23:35:36.090Z,7.80
2019-05-13T23:40:42.119Z,7.60
2019-05-13T23:45:46.781Z,7.50
2019-05-13T23:50:52.126Z,7.50
2019-05-13T23:55:58.443Z,7.40
